createdAt,value
2019-02-24T00:01:10.284Z,49.08
2019-02-24T00:03:37.460Z,48.90
2019-02-24T00:06:04.651Z,48.73
2019-02-24T00:08:31.923Z,48.84
2019-02-24T00:10:59.144Z,48.31
2019-02-24T00:13:26.278Z,48.01
2019-02-24T00:15:53.470Z,47.55
2019-02-24T00:18:20.582Z,47.38
2019-02-24T00:20:47.727Z,46.82
2019-02-24T00:23:14.867Z,46.76
2019-02-24T00:25:41.993Z,46.47
2019-02-24T00:28:09.192Z,46.28
2019-02-24T00:30:36.327Z,46.30
2019-02-24T00:33:03.479Z,46.09
2019-02-24T00:35:30.707Z,46.19
2019-02-24T00:37:57.861Z,46.29
2019-02-24T00:40:24.989Z,46.33
2019-02-24T00:42:52.149Z,46.06
2019-02-24T00:45:19.308Z,46.03
2019-02-24T00:47:46.432Z,46.12
2019-02-24T00:50:13.632Z,45.77
2019-02-24T00:52:40.816Z,46.04
2019-02-24T00:55:08.029Z,45.95
2019-02-24T00:57:35.145Z,45.89
2019-02-24T01:02:31.142Z,46.35
2019-02-24T01:04:58.840Z,46.27
2019-02-24T01:07:26.449Z,46.56
2019-02-24T01:09:54.008Z,46.89
2019-02-24T01:12:22.019Z,47.15
2019-02-24T01:14:49.178Z,47.11
2019-02-24T01:17:16.348Z,47.41
2019-02-24T01:19:43.350Z,47.41
2019-02-24T01:22:12.682Z,47.89
2019-02-24T01:24:39.833Z,48.24
2019-02-24T01:27:06.808Z,48.91
2019-02-24T01:29:35.428Z,49.08
2019-02-24T01:32:03.696Z,49.33
2019-02-24T01:34:31.334Z,49.38
2019-02-24T01:36:58.652Z,49.98
2019-02-24T01:39:25.667Z,49.98
2019-02-24T01:41:52.665Z,49.87
2019-02-24T01:44:19.683Z,49.80
2019-02-24T01:46:46.655Z,49.59
2019-02-24T01:49:13.842Z,49.61
2019-02-24T01:51:41.211Z,49.47
2019-02-24T01:54:08.217Z,49.90
2019-02-24T01:56:35.359Z,50.04
2019-02-24T01:59:02.777Z,49.54
2019-02-24T02:01:30.261Z,49.53
2019-02-24T02:03:57.273Z,49.50
2019-02-24T02:06:24.270Z,49.14
2019-02-24T02:08:51.879Z,49.04
2019-02-24T02:11:18.957Z,48.52
2019-02-24T02:13:46.064Z,48.25
2019-02-24T02:16:14.479Z,47.61
2019-02-24T02:18:42.918Z,47.75
2019-02-24T02:21:10.268Z,47.55
2019-02-24T02:23:37.266Z,47.50
2019-02-24T02:26:04.434Z,47.17
2019-02-24T02:28:31.586Z,47.27
2019-02-24T02:30:58.982Z,47.71
2019-02-24T02:33:25.961Z,47.45
2019-02-24T02:35:53.103Z,47.45
2019-02-24T02:38:21.748Z,47.38
2019-02-24T02:40:48.968Z,47.15
2019-02-24T02:43:16.093Z,46.69
2019-02-24T02:45:43.505Z,46.29
2019-02-24T02:48:10.469Z,45.78
2019-02-24T02:50:37.457Z,45.49
2019-02-24T02:53:05.417Z,45.34
2019-02-24T02:55:32.378Z,45.03
2019-02-24T02:57:59.361Z,45.07
2019-02-24T03:00:33.595Z,45.11
2019-02-24T03:03:01.381Z,45.53
2019-02-24T03:05:28.334Z,46.35
2019-02-24T03:08:00.495Z,47.20
2019-02-24T03:10:27.496Z,47.49
2019-02-24T03:12:54.735Z,47.55
2019-02-24T03:15:21.710Z,46.92
2019-02-24T03:17:48.903Z,46.48
2019-02-24T03:20:15.872Z,46.63
2019-02-24T03:22:43.172Z,47.15
2019-02-24T03:25:10.132Z,49.04
2019-02-24T03:27:37.097Z,48.70
2019-02-24T03:30:05.553Z,50.26
2019-02-24T03:32:32.659Z,48.16
2019-02-24T03:34:59.716Z,48.94
2019-02-24T03:37:27.071Z,49.66
2019-02-24T03:39:54.098Z,50.66
2019-02-24T03:42:21.071Z,51.15
2019-02-24T03:44:48.161Z,51.69
2019-02-24T03:47:15.125Z,52.70
2019-02-24T03:49:42.079Z,53.41
2019-02-24T03:52:09.464Z,53.42
2019-02-24T03:54:36.404Z,53.48
2019-02-24T03:57:03.547Z,53.63
2019-02-24T03:59:30.968Z,53.64
2019-02-24T04:01:57.922Z,53.44
2019-02-24T04:04:25.086Z,53.08
2019-02-24T04:06:52.052Z,52.92
2019-02-24T04:09:19.054Z,53.08
2019-02-24T04:11:46.213Z,53.57
2019-02-24T04:14:13.562Z,54.03
2019-02-24T04:16:40.552Z,54.24
2019-02-24T04:19:07.507Z,54.26
2019-02-24T04:21:34.477Z,53.96
2019-02-24T04:24:01.408Z,53.40
2019-02-24T04:26:28.364Z,53.51
2019-02-24T04:28:55.727Z,53.08
2019-02-24T04:31:23.892Z,52.70
2019-02-24T04:33:50.841Z,52.29
2019-02-24T04:36:17.834Z,52.12
2019-02-24T04:38:44.781Z,51.75
2019-02-24T04:41:12.950Z,51.67
2019-02-24T04:43:41.431Z,51.96
2019-02-24T04:46:08.369Z,51.90
2019-02-24T04:48:35.322Z,51.30
2019-02-24T04:51:02.745Z,50.64
2019-02-24T04:53:29.749Z,50.07
2019-02-24T04:55:56.788Z,50.01
2019-02-24T04:58:23.756Z,49.22
2019-02-24T05:00:51.104Z,48.64
2019-02-24T05:03:18.182Z,48.31
2019-02-24T05:05:45.174Z,47.59
2019-02-24T05:08:14.022Z,47.68
2019-02-24T05:10:40.969Z,47.66
2019-02-24T05:13:07.944Z,47.64
2019-02-24T05:15:34.944Z,47.51
2019-02-24T05:18:02.935Z,47.31
2019-02-24T05:20:29.930Z,47.47
2019-02-24T05:22:57.262Z,47.39
2019-02-24T05:25:24.226Z,47.47
2019-02-24T05:27:51.186Z,47.29
2019-02-24T05:30:18.581Z,47.68
2019-02-24T05:32:45.539Z,48.20
2019-02-24T05:35:12.770Z,49.43
2019-02-24T05:37:39.713Z,50.39
2019-02-24T05:40:09.173Z,51.65
2019-02-24T05:42:36.148Z,52.51
2019-02-24T05:45:03.460Z,53.06
2019-02-24T05:47:30.756Z,53.07
2019-02-24T05:49:57.807Z,53.14
2019-02-24T05:52:24.788Z,52.73
2019-02-24T05:54:54.030Z,52.69
2019-02-24T05:57:21.273Z,52.15
2019-02-24T05:59:55.227Z,51.62
2019-02-24T06:02:18.563Z,51.60
2019-02-24T06:04:45.552Z,51.45
2019-02-24T06:07:12.495Z,51.40
2019-02-24T06:09:39.420Z,50.64
2019-02-24T06:12:06.390Z,50.44
2019-02-24T06:14:33.352Z,50.30
2019-02-24T06:17:00.742Z,50.42
2019-02-24T06:19:27.803Z,50.49
2019-02-24T06:21:54.771Z,50.54
2019-02-24T06:24:23.666Z,50.41
2019-02-24T06:26:50.629Z,50.31
2019-02-24T06:29:17.562Z,50.03
2019-02-24T06:31:44.528Z,50.18
2019-02-24T06:34:11.950Z,50.07
2019-02-24T06:36:38.896Z,49.61
2019-02-24T06:39:07.115Z,49.11
2019-02-24T06:41:34.468Z,48.68
2019-02-24T06:44:01.437Z,47.92
2019-02-24T06:46:28.413Z,47.82
2019-02-24T06:48:55.756Z,47.79
2019-02-24T06:51:22.832Z,47.64
2019-02-24T06:53:49.768Z,47.27
2019-02-24T06:56:17.351Z,46.85
2019-02-24T06:58:44.518Z,46.33
2019-02-24T07:01:11.548Z,46.33
2019-02-24T07:03:38.886Z,45.73
2019-02-24T07:06:05.880Z,45.52
2019-02-24T07:08:33.059Z,44.91
2019-02-24T07:11:00.070Z,44.32
2019-02-24T07:13:27.486Z,45.32
2019-02-24T07:15:54.436Z,46.00
2019-02-24T07:18:21.441Z,46.79
2019-02-24T07:20:48.735Z,46.86
2019-02-24T07:23:15.730Z,45.53
2019-02-24T07:25:42.752Z,43.79
2019-02-24T07:28:09.715Z,43.67
2019-02-24T07:30:36.812Z,43.81
2019-02-24T07:33:03.802Z,43.77
2019-02-24T07:35:34.232Z,44.42
2019-02-24T07:38:01.523Z,44.68
2019-02-24T07:40:28.540Z,44.79
2019-02-24T07:42:56.036Z,42.37
2019-02-24T07:45:23.031Z,41.19
2019-02-24T07:47:50.111Z,41.48
2019-02-24T07:50:17.110Z,39.68
2019-02-24T07:52:44.424Z,38.04
2019-02-24T07:55:11.551Z,38.22
2019-02-24T07:57:41.501Z,35.71
2019-02-24T08:00:09.153Z,36.47
2019-02-24T08:02:36.142Z,36.71
2019-02-24T08:05:05.542Z,36.42
2019-02-24T08:07:32.657Z,35.55
2019-02-24T08:09:59.677Z,34.50
2019-02-24T08:12:27.095Z,34.76
2019-02-24T08:14:54.069Z,35.01
2019-02-24T08:17:23.320Z,34.91
2019-02-24T08:19:50.503Z,35.15
2019-02-24T08:22:20.204Z,34.54
2019-02-24T08:24:47.399Z,34.90
2019-02-24T08:27:14.984Z,35.25
2019-02-24T08:29:42.077Z,35.90
2019-02-24T08:32:10.964Z,34.82
2019-02-24T08:34:38.167Z,34.99
2019-02-24T08:37:05.449Z,34.18
2019-02-24T08:39:32.635Z,33.36
2019-02-24T08:42:02.121Z,33.63
2019-02-24T08:44:30.171Z,33.03
2019-02-24T08:46:58.670Z,33.27
2019-02-24T08:49:26.159Z,32.91
2019-02-24T08:51:53.941Z,32.44
2019-02-24T08:54:21.535Z,32.11
2019-02-24T08:56:49.671Z,32.29
2019-02-24T08:59:18.443Z,31.96
2019-02-24T09:01:46.343Z,32.39
2019-02-24T09:04:15.996Z,32.36
2019-02-24T09:06:43.560Z,33.49
2019-02-24T09:09:10.956Z,30.97
2019-02-24T09:11:39.028Z,30.87
2019-02-24T09:14:06.356Z,29.69
2019-02-24T09:16:33.601Z,30.01
2019-02-24T09:19:01.681Z,29.94
2019-02-24T09:21:32.153Z,28.88
2019-02-24T09:23:59.391Z,30.58
2019-02-24T09:26:27.259Z,30.63
2019-02-24T09:28:56.382Z,30.93
2019-02-24T09:31:24.298Z,30.03
2019-02-24T09:33:52.582Z,29.39
2019-02-24T09:36:21.222Z,27.83
2019-02-24T09:38:48.978Z,26.60
2019-02-24T09:41:16.708Z,27.17
2019-02-24T09:44:58.338Z,25.89
2019-02-24T09:48:24.309Z,25.25
2019-02-24T09:50:54.944Z,24.99
2019-02-24T09:53:23.138Z,24.34
2019-02-24T09:55:50.491Z,23.80
2019-02-24T09:58:18.155Z,23.15
2019-02-24T10:00:45.975Z,22.81
2019-02-24T10:03:13.154Z,23.33
2019-02-24T10:05:40.224Z,23.66
2019-02-24T10:08:09.184Z,22.27
2019-02-24T10:10:37.481Z,22.95
2019-02-24T10:13:04.733Z,22.15
2019-02-24T10:15:32.833Z,22.41
2019-02-24T10:17:59.954Z,21.65
2019-02-24T10:20:27.099Z,21.95
2019-02-24T10:22:55.387Z,22.22
2019-02-24T10:25:23.656Z,20.26
2019-02-24T10:27:51.861Z,20.42
2019-02-24T10:30:18.888Z,20.35
2019-02-24T10:32:46.291Z,20.27
2019-02-24T10:35:15.120Z,21.51
2019-02-24T10:37:43.445Z,20.65
2019-02-24T10:40:13.804Z,20.75
2019-02-24T10:42:41.189Z,20.63
2019-02-24T10:45:12.160Z,22.35
2019-02-24T10:47:52.321Z,21.52
2019-02-24T10:50:19.748Z,19.77
2019-02-24T10:52:50.319Z,20.66
2019-02-24T10:55:17.850Z,21.16
2019-02-24T10:57:46.048Z,22.90
2019-02-24T11:00:13.744Z,22.53
2019-02-24T11:02:41.000Z,23.34
2019-02-24T11:05:11.303Z,22.72
2019-02-24T11:07:38.491Z,22.34
2019-02-24T11:10:10.312Z,23.06
2019-02-24T11:12:38.331Z,22.95
2019-02-24T11:15:10.277Z,23.61
2019-02-24T11:17:41.975Z,23.65
2019-02-24T11:20:12.835Z,22.83
2019-02-24T11:22:41.024Z,21.59
2019-02-24T11:25:10.378Z,22.07
2019-02-24T11:27:38.328Z,21.88
2019-02-24T11:30:06.639Z,21.13
2019-02-24T11:32:35.869Z,21.96
2019-02-24T11:35:12.108Z,22.09
2019-02-24T11:37:43.163Z,20.98
2019-02-24T11:40:11.879Z,21.17
2019-02-24T11:42:43.512Z,21.52
2019-02-24T11:45:14.954Z,22.08
2019-02-24T11:47:42.753Z,21.05
2019-02-24T11:50:09.796Z,21.27
2019-02-24T11:52:45.257Z,22.33
2019-02-24T11:55:13.287Z,21.52
2019-02-24T11:57:40.400Z,22.04
2019-02-24T12:00:09.972Z,21.48
2019-02-24T12:02:38.687Z,19.28
2019-02-24T12:05:06.298Z,20.11
2019-02-24T12:07:33.519Z,19.47
2019-02-24T12:10:05.047Z,18.08
2019-02-24T12:12:33.190Z,19.29
2019-02-24T12:15:00.664Z,20.44
2019-02-24T12:17:38.063Z,20.03
2019-02-24T12:20:10.958Z,20.31
2019-02-24T12:22:39.447Z,20.63
2019-02-24T12:25:07.495Z,18.22
2019-02-24T12:27:35.146Z,18.59
2019-02-24T12:30:04.154Z,19.35
2019-02-24T12:32:34.112Z,20.98
2019-02-24T12:35:01.530Z,18.73
2019-02-24T12:37:30.329Z,17.67
2019-02-24T12:39:58.326Z,18.94
2019-02-24T12:42:26.853Z,19.00
2019-02-24T12:44:55.527Z,18.87
2019-02-24T12:47:23.653Z,18.58
2019-02-24T12:50:02.759Z,18.83
2019-02-24T12:52:23.363Z,18.38
2019-02-24T12:54:52.157Z,16.54
2019-02-24T12:57:22.286Z,16.35
2019-02-24T12:59:49.920Z,17.09
2019-02-24T13:02:17.522Z,16.78
2019-02-24T13:04:47.160Z,15.85
2019-02-24T13:07:15.101Z,16.51
2019-02-24T13:09:43.961Z,15.36
2019-02-24T13:12:13.468Z,15.59
2019-02-24T13:14:41.266Z,16.77
2019-02-24T13:17:08.701Z,15.45
2019-02-24T13:19:35.759Z,15.11
2019-02-24T13:22:05.878Z,15.70
2019-02-24T13:24:33.518Z,16.02
2019-02-24T13:27:02.891Z,15.91
2019-02-24T13:29:31.273Z,15.83
2019-02-24T13:31:59.084Z,14.13
2019-02-24T13:34:27.601Z,14.32
2019-02-24T13:36:55.555Z,14.17
2019-02-24T13:39:23.393Z,13.79
2019-02-24T13:41:51.746Z,13.88
2019-02-24T13:44:22.812Z,12.61
2019-02-24T13:46:51.761Z,12.91
2019-02-24T13:49:19.399Z,12.78
2019-02-24T13:51:46.466Z,12.21
2019-02-24T13:54:14.154Z,12.41
2019-02-24T13:56:48.357Z,11.39
2019-02-24T13:59:30.451Z,11.55
2019-02-24T14:02:09.608Z,12.11
2019-02-24T14:04:38.576Z,13.01
2019-02-24T14:07:09.781Z,12.05
2019-02-24T14:09:38.719Z,12.45
2019-02-24T14:12:08.142Z,12.23
2019-02-24T14:14:35.543Z,12.62
2019-02-24T14:17:03.077Z,12.37
2019-02-24T14:19:33.774Z,12.33
2019-02-24T14:22:00.823Z,10.79
2019-02-24T14:24:28.149Z,10.89
2019-02-24T14:26:55.391Z,11.60
2019-02-24T14:29:22.461Z,11.67
2019-02-24T14:32:35.465Z,12.02
2019-02-24T14:35:39.746Z,11.86
2019-02-24T14:38:08.414Z,11.76
2019-02-24T14:40:35.649Z,10.96
2019-02-24T14:43:03.195Z,11.31
2019-02-24T14:45:31.441Z,11.98
2019-02-24T14:47:59.499Z,11.87
2019-02-24T14:50:27.202Z,11.56
2019-02-24T14:52:54.365Z,11.29
2019-02-24T14:55:22.606Z,11.82
2019-02-24T14:57:49.904Z,11.72
2019-02-24T15:00:17.135Z,12.01
2019-02-24T15:02:44.292Z,11.89
2019-02-24T15:05:13.116Z,12.48
2019-02-24T15:07:41.090Z,13.46
2019-02-24T15:10:12.145Z,13.29
2019-02-24T15:12:43.669Z,13.92
2019-02-24T15:15:16.020Z,13.64
2019-02-24T15:17:43.496Z,13.72
2019-02-24T15:20:14.820Z,13.31
2019-02-24T15:22:43.459Z,13.25
2019-02-24T15:25:13.628Z,12.96
2019-02-24T15:27:42.965Z,13.74
2019-02-24T15:30:16.342Z,14.74
2019-02-24T15:32:51.350Z,15.05
2019-02-24T15:35:14.576Z,15.24
2019-02-24T15:37:43.606Z,15.16
2019-02-24T15:40:14.487Z,14.80
2019-02-24T15:42:47.958Z,15.53
2019-02-24T15:45:17.765Z,14.31
2019-02-24T15:47:46.263Z,13.85
2019-02-24T15:50:17.383Z,14.06
2019-02-24T15:52:49.295Z,14.45
2019-02-24T15:55:23.362Z,14.62
2019-02-24T15:57:52.220Z,14.77
2019-02-24T16:00:20.297Z,14.81
2019-02-24T16:03:01.580Z,15.03
2019-02-24T16:05:27.150Z,14.96
2019-02-24T16:07:56.092Z,15.11
2019-02-24T16:10:23.821Z,15.87
2019-02-24T16:12:52.882Z,16.05
2019-02-24T16:15:20.699Z,17.02
2019-02-24T16:17:48.581Z,16.59
2019-02-24T16:20:18.976Z,16.95
2019-02-24T16:22:47.884Z,17.37
2019-02-24T16:25:15.957Z,18.63
2019-02-24T16:27:45.781Z,19.10
2019-02-24T16:30:15.282Z,20.00
2019-02-24T16:32:43.532Z,20.26
2019-02-24T16:35:13.606Z,19.84
2019-02-24T16:37:42.376Z,20.01
2019-02-24T16:40:21.508Z,20.08
2019-02-24T16:42:54.779Z,20.54
2019-02-24T16:45:22.860Z,20.91
2019-02-24T16:47:50.207Z,21.51
2019-02-24T16:50:17.795Z,22.35
2019-02-24T16:52:53.934Z,23.51
2019-02-24T16:55:24.460Z,23.80
2019-02-24T16:57:54.077Z,23.74
2019-02-24T17:00:23.725Z,24.46
2019-02-24T17:02:54.700Z,24.59
2019-02-24T17:05:24.026Z,25.09
2019-02-24T17:07:53.538Z,25.00
2019-02-24T17:10:25.766Z,24.68
2019-02-24T17:13:52.294Z,24.56
2019-02-24T17:17:21.045Z,25.35
2019-02-24T17:19:51.170Z,26.01
2019-02-24T17:22:19.712Z,26.57
2019-02-24T17:24:47.538Z,27.18
2019-02-24T17:27:16.344Z,27.36
2019-02-24T17:29:44.457Z,27.38
2019-02-24T17:32:14.714Z,27.29
2019-02-24T17:34:56.074Z,27.06
2019-02-24T17:37:23.762Z,27.33
2019-02-24T17:39:51.720Z,28.43
2019-02-24T17:42:21.758Z,28.85
2019-02-24T17:44:56.236Z,29.08
2019-02-24T17:47:29.257Z,28.92
2019-02-24T17:50:02.725Z,29.27
2019-02-24T17:52:30.023Z,29.69
2019-02-24T17:54:59.782Z,30.37
2019-02-24T17:57:30.832Z,29.56
2019-02-24T17:59:59.051Z,29.97
2019-02-24T18:02:34.633Z,30.25
2019-02-24T18:05:06.699Z,30.16
2019-02-24T18:07:35.949Z,30.34
2019-02-24T18:10:08.017Z,30.17
2019-02-24T18:12:38.461Z,30.92
2019-02-24T18:15:12.670Z,31.02
2019-02-24T18:17:51.031Z,30.96
2019-02-24T18:20:25.692Z,31.76
2019-02-24T18:23:01.692Z,31.39
2019-02-24T18:25:33.688Z,31.47
2019-02-24T18:28:03.678Z,31.53
2019-02-24T18:30:38.065Z,31.16
2019-02-24T18:33:11.403Z,31.13
2019-02-24T18:35:45.304Z,31.92
2019-02-24T18:38:12.972Z,33.50
2019-02-24T18:40:41.972Z,32.42
2019-02-24T18:43:10.686Z,32.42
2019-02-24T18:45:41.024Z,31.54
2019-02-24T18:48:15.162Z,31.53
2019-02-24T18:50:44.928Z,31.67
2019-02-24T18:53:17.396Z,31.66
2019-02-24T18:55:47.046Z,31.70
2019-02-24T18:58:16.586Z,31.94
2019-02-24T19:00:47.090Z,32.09
2019-02-24T19:03:15.578Z,32.17
2019-02-24T19:05:50.361Z,32.68
2019-02-24T19:08:25.807Z,33.01
2019-02-24T19:10:58.380Z,33.34
2019-02-24T19:13:27.965Z,33.02
2019-02-24T19:16:02.483Z,33.09
2019-02-24T19:18:33.106Z,33.35
2019-02-24T19:21:01.350Z,33.27
2019-02-24T19:23:39.927Z,34.24
2019-02-24T19:26:10.596Z,34.12
2019-02-24T19:28:42.172Z,34.56
2019-02-24T19:31:10.759Z,35.13
2019-02-24T19:33:39.898Z,35.40
2019-02-24T19:36:08.747Z,35.84
2019-02-24T19:38:38.450Z,35.75
2019-02-24T19:41:11.539Z,35.59
2019-02-24T19:43:41.939Z,35.57
2019-02-24T19:46:11.306Z,35.22
2019-02-24T19:48:42.376Z,34.49
2019-02-24T19:51:11.807Z,35.03
2019-02-24T19:53:42.856Z,36.52
2019-02-24T19:56:14.661Z,37.78
2019-02-24T19:58:43.796Z,38.46
2019-02-24T20:01:13.874Z,37.76
2019-02-24T20:03:57.651Z,37.57
2019-02-24T20:06:27.167Z,38.31
2019-02-24T20:08:58.753Z,38.57
2019-02-24T20:11:32.972Z,38.54
2019-02-24T20:14:02.382Z,38.88
2019-02-24T20:16:34.292Z,38.68
2019-02-24T20:19:07.021Z,37.91
2019-02-24T20:21:43.737Z,38.02
2019-02-24T20:24:13.362Z,37.86
2019-02-24T20:26:44.666Z,38.23
2019-02-24T20:29:17.926Z,38.73
2019-02-24T20:31:46.925Z,38.49
2019-02-24T20:34:14.770Z,39.03
2019-02-24T20:36:45.955Z,39.79
2019-02-24T20:39:18.390Z,39.88
2019-02-24T20:41:47.291Z,39.88
2019-02-24T20:44:19.882Z,39.54
2019-02-24T20:46:55.048Z,38.77
2019-02-24T20:49:25.344Z,38.90
2019-02-24T20:51:55.113Z,38.95
2019-02-24T20:54:25.246Z,40.11
2019-02-24T20:56:55.078Z,39.90
2019-02-24T20:59:24.258Z,40.61
2019-02-24T21:01:55.269Z,40.71
2019-02-24T21:04:27.748Z,40.83
2019-02-24T21:07:01.680Z,40.16
2019-02-24T21:09:31.999Z,39.68
2019-02-24T21:12:00.972Z,39.93
2019-02-24T21:14:32.330Z,40.30
2019-02-24T21:17:00.409Z,40.94
2019-02-24T21:19:35.877Z,40.94
2019-02-24T21:22:05.831Z,41.21
2019-02-24T21:24:34.612Z,43.98
2019-02-24T21:27:03.201Z,44.34
2019-02-24T21:29:43.753Z,45.08
2019-02-24T21:32:11.066Z,44.87
2019-02-24T21:34:39.117Z,44.17
2019-02-24T21:37:10.723Z,44.17
2019-02-24T21:39:37.722Z,44.76
2019-02-24T21:42:04.730Z,44.26
2019-02-24T21:44:32.941Z,45.23
2019-02-24T21:47:00.096Z,43.33
2019-02-24T21:49:30.165Z,42.59
2019-02-24T21:51:59.683Z,42.08
2019-02-24T21:54:26.672Z,41.88
2019-02-24T21:56:56.085Z,43.07
2019-02-24T21:59:24.521Z,42.53
2019-02-24T22:01:56.486Z,42.37
2019-02-24T22:04:23.498Z,41.23
2019-02-24T22:06:50.920Z,40.75
2019-02-24T22:09:19.059Z,40.62
2019-02-24T22:11:46.159Z,40.62
2019-02-24T22:14:16.677Z,41.13
2019-02-24T22:16:45.945Z,41.40
2019-02-24T22:19:12.925Z,41.04
2019-02-24T22:21:40.252Z,40.10
2019-02-24T22:24:08.422Z,40.02
2019-02-24T22:26:35.376Z,39.90
2019-02-24T22:29:03.810Z,39.64
2019-02-24T22:31:30.852Z,39.13
2019-02-24T22:33:57.815Z,38.90
2019-02-24T22:36:24.759Z,38.70
2019-02-24T22:38:51.723Z,38.97
2019-02-24T22:41:18.685Z,39.53
2019-02-24T22:43:45.981Z,42.12
2019-02-24T22:46:12.953Z,44.16
2019-02-24T22:48:39.937Z,40.17
2019-02-24T22:51:06.896Z,39.70
2019-02-24T22:53:33.914Z,39.13
2019-02-24T22:56:00.851Z,39.11
2019-02-24T22:58:28.201Z,39.38
2019-02-24T23:01:10.213Z,40.52
2019-02-24T23:03:41.001Z,43.17
2019-02-24T23:06:08.363Z,44.43
2019-02-24T23:08:35.333Z,44.83
2019-02-24T23:11:02.295Z,45.36
2019-02-24T23:13:29.682Z,45.79
2019-02-24T23:15:56.652Z,45.17
2019-02-24T23:18:23.597Z,45.86
2019-02-24T23:20:50.544Z,47.47
2019-02-24T23:23:17.507Z,47.08
2019-02-24T23:25:44.464Z,47.99
2019-02-24T23:28:12.837Z,49.24
2019-02-24T23:30:39.853Z,48.49
2019-02-24T23:33:06.933Z,48.46
2019-02-24T23:35:34.364Z,50.94
2019-02-24T23:38:01.359Z,47.36
2019-02-24T23:40:28.305Z,45.43
2019-02-24T23:42:55.265Z,45.23
2019-02-24T23:45:22.525Z,45.29
2019-02-24T23:47:49.469Z,45.48
2019-02-24T23:50:16.417Z,43.97
2019-02-24T23:52:44.114Z,44.08
2019-02-24T23:55:11.032Z,45.34
2019-02-24T23:57:37.988Z,45.73
